createdAt,value
2023-03-26T00:00:12.639Z,1.55
2023-03-26T00:02:41.424Z,1.20
2023-03-26T00:05:14.583Z,1.40
2023-03-26T00:07:43.086Z,1.10
2023-03-26T00:10:12.131Z,1.00
2023-03-26T00:12:42.101Z,1.47
2023-03-26T00:15:11.430Z,1.30
2023-03-26T00:17:39.820Z,1.20
2023-03-26T00:20:09.616Z,1.35
2023-03-26T00:22:38.100Z,1.67
2023-03-26T00:25:07.663Z,1.30
2023-03-26T00:27:36.099Z,1.60
2023-03-26T00:30:07.320Z,1.25
2023-03-26T00:32:35.800Z,1.50
2023-03-26T00:35:04.412Z,1.35
2023-03-26T00:37:33.873Z,1.25
2023-03-26T00:40:10.304Z,1.30
2023-03-26T00:42:38.872Z,1.50
2023-03-26T00:45:09.909Z,1.55
2023-03-26T00:47:40.152Z,1.20
2023-03-26T00:50:15.269Z,1.15
2023-03-26T00:52:44.984Z,1.70
2023-03-26T00:55:13.788Z,1.35
2023-03-26T00:57:42.195Z,1.10
2023-03-26T01:00:15.451Z,1.90
2023-03-26T01:02:45.086Z,1.67
2023-03-26T01:08:20.477Z,1.33
2023-03-26T01:10:50.914Z,1.60
2023-03-26T01:13:21.736Z,1.35
2023-03-26T01:15:53.215Z,2.30
2023-03-26T01:18:26.329Z,1.52
2023-03-26T01:21:05.104Z,1.92
2023-03-26T01:23:44.338Z,1.60
2023-03-26T01:26:33.042Z,1.73
2023-03-26T01:29:04.236Z,1.30
2023-03-26T01:31:38.588Z,2.13
2023-03-26T01:34:15.727Z,2.65
2023-03-26T01:36:52.373Z,1.45
2023-03-26T01:39:26.226Z,1.70
2023-03-26T01:41:59.312Z,1.50
2023-03-26T01:44:34.213Z,1.30
2023-03-26T01:47:03.294Z,1.30
2023-03-26T01:49:32.932Z,1.52
2023-03-26T01:52:01.435Z,1.80
2023-03-26T01:54:32.396Z,1.65
2023-03-26T01:57:10.742Z,1.27
2023-03-26T01:59:54.683Z,1.40
2023-03-26T02:02:31.682Z,1.40
2023-03-26T02:05:09.653Z,1.67
2023-03-26T02:07:43.069Z,1.60
2023-03-26T02:10:16.403Z,2.10
2023-03-26T02:12:46.813Z,1.60
2023-03-26T02:15:15.627Z,1.67
2023-03-26T02:17:44.516Z,1.70
2023-03-26T02:20:15.819Z,1.63
2023-03-26T02:22:46.107Z,1.30
2023-03-26T02:25:16.762Z,1.42
2023-03-26T02:27:47.453Z,1.70
2023-03-26T02:30:19.569Z,1.42
2023-03-26T02:32:52.166Z,1.50
2023-03-26T02:35:22.226Z,1.75
2023-03-26T02:37:50.894Z,1.60
2023-03-26T02:40:21.214Z,1.65
2023-03-26T02:42:51.319Z,1.70
2023-03-26T02:45:20.287Z,1.60
2023-03-26T02:47:51.083Z,1.53
2023-03-26T02:50:19.521Z,1.52
2023-03-26T02:52:49.783Z,1.58
2023-03-26T02:55:18.226Z,1.90
2023-03-26T02:57:46.693Z,1.73
2023-03-26T03:00:17.563Z,1.77
2023-03-26T03:02:48.081Z,1.63
2023-03-26T03:05:18.044Z,2.15
2023-03-26T03:07:46.845Z,1.40
2023-03-26T03:10:16.043Z,1.50
2023-03-26T03:12:44.468Z,1.20
2023-03-26T03:15:14.118Z,1.13
2023-03-26T03:17:44.114Z,1.38
2023-03-26T03:20:13.430Z,1.25
2023-03-26T03:22:42.524Z,1.35
2023-03-26T03:27:43.026Z,1.30
2023-03-26T03:30:14.206Z,1.20
2023-03-26T03:32:44.133Z,1.30
2023-03-26T03:35:13.077Z,1.40
2023-03-26T03:37:41.557Z,1.30
2023-03-26T03:40:11.335Z,1.33
2023-03-26T03:45:08.989Z,1.13
2023-03-26T03:47:37.441Z,1.52
2023-03-26T03:50:09.222Z,1.30
2023-03-26T03:52:37.692Z,1.52
2023-03-26T03:55:06.954Z,1.40
2023-03-26T03:57:35.668Z,1.83
2023-03-26T04:00:07.049Z,2.15
2023-03-26T04:02:35.632Z,1.50
2023-03-26T04:05:05.991Z,1.35
2023-03-26T04:07:35.998Z,1.52
2023-03-26T04:10:05.904Z,1.50
2023-03-26T04:12:34.586Z,2.10
2023-03-26T04:15:03.195Z,1.20
2023-03-26T04:17:31.605Z,1.33
2023-03-26T04:20:07.325Z,1.30
2023-03-26T04:22:37.243Z,1.33
2023-03-26T04:25:06.197Z,1.27
2023-03-26T04:27:36.789Z,1.43
2023-03-26T04:30:07.436Z,1.35
2023-03-26T04:32:38.344Z,1.30
2023-03-26T04:35:07.504Z,1.42
2023-03-26T04:37:40.509Z,1.63
2023-03-26T04:40:14.137Z,1.70
2023-03-26T04:42:45.987Z,1.90
2023-03-26T04:45:15.467Z,1.63
2023-03-26T04:47:46.558Z,1.73
2023-03-26T04:50:15.476Z,1.60
2023-03-26T04:52:45.889Z,1.42
2023-03-26T04:55:23.148Z,1.80
2023-03-26T04:57:56.314Z,1.80
2023-03-26T05:00:25.566Z,1.98
2023-03-26T05:02:56.215Z,1.83
2023-03-26T05:05:25.363Z,1.60
2023-03-26T05:07:55.259Z,1.70
2023-03-26T05:12:52.437Z,1.70
2023-03-26T05:15:20.960Z,1.40
2023-03-26T05:17:49.778Z,1.63
2023-03-26T05:20:21.344Z,1.95
2023-03-26T05:22:50.888Z,1.70
2023-03-26T05:25:21.696Z,1.55
2023-03-26T05:27:50.426Z,2.10
2023-03-26T05:30:22.495Z,1.77
2023-03-26T05:32:51.872Z,1.70
2023-03-26T05:35:21.190Z,1.48
2023-03-26T05:37:51.536Z,1.50
2023-03-26T05:40:21.736Z,1.60
2023-03-26T05:42:51.229Z,1.98
2023-03-26T05:45:19.809Z,2.00
2023-03-26T05:47:49.605Z,2.08
2023-03-26T05:52:46.502Z,2.05
2023-03-26T05:55:15.030Z,2.35
2023-03-26T05:57:44.894Z,1.70
2023-03-26T06:02:43.383Z,1.90
2023-03-26T06:05:12.518Z,2.40
2023-03-26T06:07:41.268Z,2.20
2023-03-26T06:10:10.651Z,2.08
2023-03-26T06:12:49.602Z,2.15
2023-03-26T06:15:18.168Z,2.13
2023-03-26T06:17:47.221Z,2.10
2023-03-26T06:20:16.533Z,1.63
2023-03-26T06:22:45.120Z,2.20
2023-03-26T06:25:13.512Z,2.10
2023-03-26T06:27:41.893Z,2.00
2023-03-26T06:30:12.827Z,3.38
2023-03-26T06:32:41.375Z,1.67
2023-03-26T06:35:11.175Z,1.77
2023-03-26T06:37:39.559Z,30.38
2023-03-26T06:40:09.455Z,2.08
2023-03-26T06:45:27.514Z,2.03
2023-03-26T06:50:24.760Z,3.08
2023-03-26T06:52:54.998Z,2.07
2023-03-26T06:55:23.949Z,6.53
2023-03-26T06:57:53.313Z,4.33
2023-03-26T07:00:22.671Z,2.17
2023-03-26T07:02:53.484Z,3.28
2023-03-26T07:05:22.676Z,2.10
2023-03-26T07:07:51.200Z,2.15
2023-03-26T07:10:19.805Z,4.95
2023-03-26T07:12:48.347Z,3.13
2023-03-26T07:15:16.943Z,1.80
2023-03-26T07:17:45.385Z,1.90
2023-03-26T07:20:15.364Z,4.63
2023-03-26T07:22:44.371Z,2.13
2023-03-26T07:25:15.587Z,2.20
2023-03-26T07:27:51.759Z,3.17
2023-03-26T07:30:26.623Z,1.83
2023-03-26T07:33:00.593Z,3.15
2023-03-26T07:35:35.673Z,3.05
2023-03-26T07:38:21.804Z,2.92
2023-03-26T07:40:59.481Z,2.65
2023-03-26T07:43:41.253Z,3.00
2023-03-26T07:46:13.211Z,2.40
2023-03-26T07:48:43.996Z,2.85
2023-03-26T07:51:15.424Z,3.17
2023-03-26T07:53:44.243Z,2.45
2023-03-26T07:56:16.543Z,2.53
2023-03-26T07:59:04.445Z,2.53
2023-03-26T08:01:47.166Z,1.95
2023-03-26T08:04:41.601Z,2.22
2023-03-26T08:07:19.487Z,1.95
2023-03-26T08:10:01.491Z,1.80
2023-03-26T08:12:38.197Z,2.03
2023-03-26T08:15:14.263Z,1.80
2023-03-26T08:17:47.551Z,1.83
2023-03-26T08:20:28.281Z,2.30
2023-03-26T08:23:06.617Z,2.70
2023-03-26T08:25:41.382Z,2.00
2023-03-26T08:28:26.576Z,1.80
2023-03-26T08:30:56.017Z,2.00
2023-03-26T08:33:28.281Z,2.13
2023-03-26T08:35:57.085Z,2.95
2023-03-26T08:38:31.036Z,2.03
2023-03-26T08:41:46.445Z,2.05
2023-03-26T08:44:52.998Z,1.50
2023-03-26T08:47:55.463Z,1.60
2023-03-26T08:50:56.911Z,1.92
2023-03-26T08:53:58.607Z,2.08
2023-03-26T08:56:33.610Z,1.95
2023-03-26T08:59:41.884Z,1.90
2023-03-26T09:02:55.672Z,1.50
2023-03-26T09:06:05.669Z,2.42
2023-03-26T09:09:09.087Z,1.67
2023-03-26T09:12:14.165Z,2.10
2023-03-26T09:15:17.050Z,1.50
2023-03-26T09:18:27.169Z,2.03
2023-03-26T09:21:31.962Z,1.90
2023-03-26T09:24:41.602Z,2.97
2023-03-26T09:27:27.965Z,1.98
2023-03-26T09:30:22.037Z,2.30
2023-03-26T09:33:23.158Z,2.15
2023-03-26T09:36:20.235Z,1.70
2023-03-26T09:38:54.629Z,1.80
2023-03-26T09:41:37.636Z,1.55
2023-03-26T09:44:33.071Z,2.15
2023-03-26T09:47:24.651Z,2.10
2023-03-26T09:49:59.031Z,1.88
2023-03-26T09:52:52.916Z,5.00
2023-03-26T09:55:56.665Z,1.60
2023-03-26T09:58:40.651Z,1.73
2023-03-26T10:01:14.985Z,1.90
2023-03-26T10:03:57.570Z,1.45
2023-03-26T11:04:46.694Z,1.70
2023-03-26T11:07:22.112Z,1.70
2023-03-26T11:09:59.286Z,1.58
2023-03-26T11:12:36.567Z,7.22
2023-03-26T11:15:18.876Z,2.33
2023-03-26T11:17:58.500Z,1.70
2023-03-26T11:20:38.641Z,1.38
2023-03-26T11:23:39.217Z,1.42
2023-03-26T11:26:16.165Z,1.73
2023-03-26T11:29:31.481Z,1.80
2023-03-26T11:32:04.511Z,2.30
2023-03-26T11:34:38.263Z,2.10
2023-03-26T11:37:16.763Z,1.65
2023-03-26T11:39:50.845Z,1.63
2023-03-26T11:42:23.811Z,1.70
2023-03-26T11:44:56.104Z,2.08
2023-03-26T11:47:30.090Z,1.40
2023-03-26T11:50:01.785Z,1.58
2023-03-26T11:52:31.714Z,1.75
2023-03-26T11:57:33.451Z,1.80
2023-03-26T12:00:10.749Z,2.45
2023-03-26T12:02:41.644Z,4.10
2023-03-26T12:05:19.462Z,2.03
2023-03-26T12:07:54.722Z,3.17
2023-03-26T12:10:26.107Z,2.80
2023-03-26T12:12:57.043Z,1.92
2023-03-26T12:15:26.610Z,1.90
2023-03-26T12:17:58.262Z,1.90
2023-03-26T12:20:38.853Z,1.85
2023-03-26T12:23:31.480Z,2.20
2023-03-26T12:26:14.281Z,1.70
2023-03-26T12:28:47.000Z,1.58
2023-03-26T12:31:18.317Z,1.55
2023-03-26T12:34:04.134Z,1.70
2023-03-26T12:36:35.782Z,1.27
2023-03-26T12:40:06.895Z,1.92
2023-03-26T12:44:46.038Z,1.60
2023-03-26T12:45:23.185Z,1.40
2023-03-26T12:47:58.717Z,1.48
2023-03-26T12:50:42.673Z,1.60
2023-03-26T12:56:01.624Z,1.48
2023-03-26T12:58:47.946Z,1.25
2023-03-26T13:01:28.701Z,1.65
2023-03-26T13:04:17.533Z,1.48
2023-03-26T13:07:01.763Z,2.03
2023-03-26T13:09:51.730Z,1.65
2023-03-26T13:12:35.518Z,1.90
2023-03-26T13:15:24.106Z,1.50
2023-03-26T13:18:04.264Z,2.30
2023-03-26T13:20:51.388Z,2.13
2023-03-26T13:23:31.966Z,2.38
2023-03-26T13:26:09.102Z,2.08
2023-03-26T13:28:52.511Z,1.50
2023-03-26T13:31:25.559Z,1.80
2023-03-26T13:34:03.449Z,1.73
2023-03-26T13:36:39.098Z,1.88
2023-03-26T13:39:19.308Z,1.40
2023-03-26T13:42:00.864Z,1.80
2023-03-26T13:44:43.102Z,1.35
2023-03-26T13:47:16.670Z,1.60
2023-03-26T13:49:49.928Z,1.60
2023-03-26T13:52:24.109Z,1.40
2023-03-26T13:55:02.841Z,1.60
2023-03-26T13:57:37.449Z,2.10
2023-03-26T14:00:16.357Z,1.58
2023-03-26T14:02:47.804Z,1.80
2023-03-26T14:05:22.075Z,2.08
2023-03-26T14:07:54.319Z,2.03
2023-03-26T14:10:28.832Z,2.13
2023-03-26T14:13:01.581Z,1.65
2023-03-26T14:15:38.926Z,1.88
2023-03-26T14:18:20.441Z,2.53
2023-03-26T14:21:21.520Z,2.30
2023-03-26T14:24:26.254Z,2.00
2023-03-26T14:27:19.949Z,1.85
2023-03-26T14:30:04.759Z,1.83
2023-03-26T14:32:47.473Z,1.50
2023-03-26T14:35:33.598Z,1.90
2023-03-26T14:38:23.892Z,2.20
2023-03-26T14:41:05.073Z,2.05
2023-03-26T14:43:57.675Z,1.55
2023-03-26T14:49:55.788Z,1.25
2023-03-26T14:52:32.596Z,1.60
2023-03-26T14:55:07.549Z,1.23
2023-03-26T14:58:10.577Z,1.58
2023-03-26T15:01:12.181Z,1.23
2023-03-26T15:04:19.040Z,1.05
2023-03-26T15:07:36.798Z,1.33
2023-03-26T15:10:26.324Z,1.83
2023-03-26T15:13:23.525Z,1.70
2023-03-26T15:16:09.758Z,1.60
2023-03-26T15:19:07.674Z,1.70
2023-03-26T15:22:00.981Z,2.00
2023-03-26T15:25:01.391Z,1.73
2023-03-26T15:27:43.516Z,2.00
2023-03-26T15:30:58.132Z,2.28
2023-03-26T15:34:08.391Z,2.35
2023-03-26T15:37:17.147Z,2.35
2023-03-26T15:40:07.709Z,2.20
2023-03-26T15:42:59.533Z,2.22
2023-03-26T15:45:37.713Z,2.85
2023-03-26T15:48:43.062Z,3.13
2023-03-26T15:51:46.965Z,2.80
2023-03-26T15:54:27.533Z,7.97
2023-03-26T16:00:01.882Z,4.88
2023-03-26T16:02:40.238Z,4.57
2023-03-26T16:05:28.140Z,3.85
2023-03-26T16:08:04.338Z,4.43
2023-03-26T16:10:41.095Z,3.42
2023-03-26T16:13:32.094Z,3.42
2023-03-26T16:16:21.933Z,3.78
2023-03-26T16:21:41.098Z,4.07
2023-03-26T16:24:23.463Z,4.03
2023-03-26T16:27:08.128Z,4.05
2023-03-26T16:30:07.331Z,4.72
2023-03-26T16:32:41.534Z,4.47
2023-03-26T16:35:42.854Z,4.90
2023-03-26T16:38:14.539Z,5.13
2023-03-26T16:41:00.365Z,4.90
2023-03-26T16:43:55.997Z,5.07
2023-03-26T16:46:36.025Z,5.47
2023-03-26T16:49:18.012Z,7.35
2023-03-26T16:52:03.092Z,7.75
2023-03-26T16:54:46.094Z,11.10
2023-03-26T16:57:26.335Z,11.60
2023-03-26T17:02:49.160Z,11.43
2023-03-26T17:05:28.517Z,5.80
2023-03-26T17:08:02.866Z,6.13
2023-03-26T17:10:37.909Z,6.78
2023-03-26T17:13:10.970Z,5.82
2023-03-26T17:15:49.592Z,5.90
2023-03-26T17:18:39.854Z,7.10
2023-03-26T17:24:16.477Z,9.05
2023-03-26T17:26:53.689Z,8.95
2023-03-26T17:29:28.239Z,8.55
2023-03-26T17:32:08.585Z,7.03
2023-03-26T17:34:56.564Z,5.95
2023-03-26T17:37:51.445Z,6.38
2023-03-26T17:40:49.174Z,6.45
2023-03-26T17:43:38.660Z,5.50
2023-03-26T17:46:23.772Z,5.30
2023-03-26T17:48:59.742Z,5.22
2023-03-26T17:51:40.090Z,5.35
2023-03-26T17:54:18.968Z,5.55
2023-03-26T17:56:47.974Z,6.40
2023-03-26T17:59:23.534Z,6.10
2023-03-26T18:01:55.759Z,6.65
2023-03-26T18:04:31.258Z,6.22
2023-03-26T18:07:36.791Z,6.57
2023-03-26T18:10:37.230Z,6.47
2023-03-26T18:13:22.221Z,5.72
2023-03-26T18:16:01.912Z,4.47
2023-03-26T18:18:36.799Z,5.10
2023-03-26T18:21:07.999Z,4.53
2023-03-26T18:23:39.739Z,5.45
2023-03-26T18:26:16.576Z,5.30
2023-03-26T18:28:50.913Z,4.32
2023-03-26T18:31:22.412Z,4.00
2023-03-26T18:33:55.802Z,3.70
2023-03-26T18:36:27.794Z,3.65
2023-03-26T18:38:59.253Z,3.72
2023-03-26T18:41:33.714Z,4.82
2023-03-26T18:44:04.989Z,6.40
2023-03-26T18:46:34.836Z,6.85
2023-03-26T18:51:38.299Z,6.55
2023-03-26T18:54:18.716Z,5.55
2023-03-26T18:56:52.315Z,6.00
2023-03-26T18:59:31.964Z,6.30
2023-03-26T19:02:04.350Z,7.38
2023-03-26T19:04:35.039Z,7.30
2023-03-26T19:07:04.604Z,8.23
2023-03-26T19:09:34.272Z,7.72
2023-03-26T19:12:10.449Z,7.90
2023-03-26T19:14:55.800Z,8.43
2023-03-26T19:17:27.803Z,10.80
2023-03-26T19:19:57.693Z,10.75
2023-03-26T19:22:28.342Z,6.70
2023-03-26T19:25:00.396Z,7.85
2023-03-26T19:27:31.499Z,6.25
2023-03-26T19:30:01.285Z,6.25
2023-03-26T19:35:06.245Z,5.68
2023-03-26T19:37:35.153Z,6.35
2023-03-26T19:40:14.627Z,5.70
2023-03-26T19:42:45.643Z,5.80
2023-03-26T19:45:19.368Z,4.20
2023-03-26T19:47:57.309Z,3.30
2023-03-26T19:50:42.434Z,2.60
2023-03-26T19:53:22.156Z,2.97
2023-03-26T19:55:56.582Z,3.65
2023-03-26T19:58:28.578Z,2.80
2023-03-26T20:00:57.664Z,3.38
2023-03-26T20:03:30.567Z,3.90
2023-03-26T20:06:00.470Z,3.88
2023-03-26T20:10:59.518Z,5.43
2023-03-26T20:13:31.436Z,4.88
2023-03-26T20:16:06.492Z,4.07
2023-03-26T20:18:38.299Z,3.22
2023-03-26T20:21:11.482Z,3.70
2023-03-26T20:23:40.904Z,3.88
2023-03-26T20:26:14.793Z,2.92
2023-03-26T20:28:48.263Z,3.25
2023-03-26T20:31:25.012Z,3.38
2023-03-26T20:33:56.510Z,3.70
2023-03-26T20:36:33.747Z,3.10
2023-03-26T20:39:08.721Z,3.55
2023-03-26T20:41:45.045Z,2.38
2023-03-26T20:44:17.607Z,2.10
2023-03-26T20:46:48.591Z,2.50
2023-03-26T20:49:18.204Z,2.45
2023-03-26T20:51:49.121Z,2.17
2023-03-26T20:54:19.899Z,2.47
2023-03-26T20:56:49.732Z,2.25
2023-03-26T21:01:52.515Z,2.00
2023-03-26T21:04:22.139Z,2.10
2023-03-26T21:06:53.391Z,1.80
2023-03-26T21:09:25.515Z,1.92
2023-03-26T21:14:32.809Z,1.30
2023-03-26T21:17:02.674Z,1.73
2023-03-26T21:19:32.005Z,1.45
2023-03-26T21:22:15.396Z,1.13
2023-03-26T21:24:54.508Z,1.30
2023-03-26T21:27:30.940Z,1.20
2023-03-26T21:30:01.938Z,0.95
2023-03-26T21:32:31.654Z,0.90
2023-03-26T21:37:29.718Z,1.08
2023-03-26T21:40:00.159Z,1.00
2023-03-26T21:42:29.582Z,1.00
2023-03-26T21:44:58.968Z,1.00
2023-03-26T21:47:29.728Z,1.38
2023-03-26T21:49:58.891Z,1.00
2023-03-26T21:52:28.342Z,1.50
2023-03-26T21:55:00.660Z,1.23
2023-03-26T21:57:44.061Z,1.17
2023-03-26T22:00:16.116Z,1.08
2023-03-26T22:03:00.302Z,1.30
2023-03-26T22:05:38.332Z,1.13
2023-03-26T22:08:08.049Z,1.45
2023-03-26T22:10:37.079Z,2.92
2023-03-26T22:15:58.733Z,4.25
2023-03-26T22:18:30.381Z,2.70
2023-03-26T22:20:59.950Z,2.50
2023-03-26T22:23:34.125Z,2.50
2023-03-26T22:26:02.857Z,2.33
2023-03-26T22:28:32.007Z,2.28
2023-03-26T22:31:01.071Z,2.25
2023-03-26T22:33:31.483Z,2.00
2023-03-26T22:36:01.458Z,2.15
2023-03-26T22:38:30.705Z,1.95
2023-03-26T22:40:59.736Z,1.70
2023-03-26T22:43:28.653Z,1.53
2023-03-26T22:45:57.770Z,2.10
2023-03-26T22:48:26.417Z,1.70
2023-03-26T22:51:05.697Z,1.80
2023-03-26T22:53:34.604Z,2.28
2023-03-26T22:56:04.236Z,4.20
2023-03-26T22:58:35.474Z,4.43
2023-03-26T23:01:07.972Z,4.57
2023-03-26T23:03:37.779Z,4.88
2023-03-26T23:06:11.953Z,4.90
2023-03-26T23:08:40.904Z,5.10
2023-03-26T23:11:13.659Z,3.93
2023-03-26T23:13:43.194Z,3.00
2023-03-26T23:16:13.079Z,2.72
2023-03-26T23:18:42.608Z,2.65
2023-03-26T23:21:17.165Z,2.22
2023-03-26T23:23:49.406Z,1.38
2023-03-26T23:26:18.625Z,1.15
2023-03-26T23:28:48.746Z,1.02
2023-03-26T23:31:17.396Z,1.00
2023-03-26T23:33:47.605Z,1.00
2023-03-26T23:36:19.523Z,0.88
2023-03-26T23:38:49.346Z,0.65
2023-03-26T23:43:54.153Z,0.85
2023-03-26T23:46:24.781Z,0.90
2023-03-26T23:51:24.975Z,0.80
2023-03-26T23:53:54.013Z,1.02
2023-03-26T23:56:22.826Z,1.03
2023-03-26T23:58:51.858Z,1.00
